createdAt,value
2023-04-27T00:01:49.000Z,11.85
2023-04-27T00:03:21.929Z,13.03
2023-04-27T00:04:44.688Z,12.09
2023-04-27T00:06:06.904Z,13.07
2023-04-27T00:07:36.572Z,12.14
2023-04-27T00:09:00.750Z,13.50
2023-04-27T00:10:29.927Z,11.88
2023-04-27T00:12:02.029Z,12.82
2023-04-27T00:13:23.617Z,15.22
2023-04-27T00:14:48.248Z,13.56
2023-04-27T00:16:09.868Z,13.36
2023-04-27T00:17:43.756Z,19.91
2023-04-27T00:19:05.561Z,14.83
2023-04-27T00:20:27.740Z,15.62
2023-04-27T00:21:49.989Z,14.86
2023-04-27T00:23:16.067Z,13.45
2023-04-27T00:24:49.656Z,15.25
2023-04-27T00:26:18.644Z,18.85
2023-04-27T00:27:42.361Z,17.14
2023-04-27T00:29:04.395Z,15.55
2023-04-27T00:30:28.432Z,15.83
2023-04-27T00:31:52.717Z,15.59
2023-04-27T00:33:17.170Z,20.27
2023-04-27T00:34:45.572Z,16.45
2023-04-27T00:36:06.287Z,16.66
2023-04-27T00:37:28.456Z,15.77
2023-04-27T00:39:00.408Z,15.66
2023-04-27T00:40:21.937Z,20.36
2023-04-27T00:41:44.128Z,20.01
2023-04-27T00:43:07.783Z,16.90
2023-04-27T00:44:29.580Z,18.18
2023-04-27T00:45:53.283Z,21.99
2023-04-27T00:47:14.725Z,19.99
2023-04-27T00:48:41.262Z,29.40
2023-04-27T00:50:11.960Z,24.15
2023-04-27T00:51:33.611Z,23.33
2023-04-27T00:52:57.916Z,20.70
2023-04-27T00:54:20.036Z,23.17
2023-04-27T00:55:46.471Z,21.48
2023-04-27T00:57:10.635Z,21.83
2023-04-27T00:58:34.967Z,23.51
2023-04-27T00:59:59.077Z,21.84
2023-04-27T01:01:21.475Z,21.59
2023-04-27T01:02:57.774Z,20.81
2023-04-27T01:04:24.439Z,27.83
2023-04-27T01:05:46.561Z,19.81
2023-04-27T01:07:09.415Z,19.50
2023-04-27T01:08:31.063Z,26.20
2023-04-27T01:09:52.704Z,29.83
2023-04-27T01:11:21.849Z,21.15
2023-04-27T01:12:43.803Z,21.15
2023-04-27T01:14:05.500Z,22.52
2023-04-27T01:15:29.436Z,25.17
2023-04-27T01:16:51.367Z,24.13
2023-04-27T01:18:28.303Z,21.36
2023-04-27T01:19:55.248Z,21.03
2023-04-27T01:21:17.124Z,23.13
2023-04-27T01:22:41.390Z,24.69
2023-04-27T01:24:03.893Z,22.74
2023-04-27T01:25:33.268Z,24.78
2023-04-27T01:27:09.089Z,25.00
2023-04-27T01:28:32.055Z,21.93
2023-04-27T01:30:03.545Z,23.18
2023-04-27T01:31:39.068Z,22.85
2023-04-27T01:33:01.478Z,22.26
2023-04-27T01:34:23.249Z,22.73
2023-04-27T01:35:47.669Z,23.07
2023-04-27T01:37:09.158Z,25.05
2023-04-27T01:38:30.923Z,22.63
2023-04-27T01:40:06.573Z,22.21
2023-04-27T01:41:28.505Z,22.80
2023-04-27T01:42:50.542Z,22.93
2023-04-27T01:44:21.833Z,23.45
2023-04-27T01:45:53.610Z,23.45
2023-04-27T01:47:28.439Z,21.97
2023-04-27T01:48:50.529Z,21.86
2023-04-27T01:50:20.169Z,23.05
2023-04-27T01:52:01.033Z,23.69
2023-04-27T01:53:30.461Z,23.35
2023-04-27T01:55:04.394Z,23.72
2023-04-27T01:56:38.237Z,22.38
2023-04-27T01:58:00.384Z,22.36
2023-04-27T01:59:29.339Z,22.85
2023-04-27T02:00:59.194Z,22.66
2023-04-27T02:02:21.405Z,22.39
2023-04-27T02:04:07.059Z,22.95
2023-04-27T02:05:30.400Z,23.15
2023-04-27T02:06:59.485Z,22.38
2023-04-27T02:08:23.308Z,22.23
2023-04-27T02:09:57.053Z,21.99
2023-04-27T02:11:26.583Z,22.83
2023-04-27T02:12:50.979Z,27.38
2023-04-27T02:14:12.128Z,24.54
2023-04-27T02:15:36.339Z,31.51
2023-04-27T02:17:00.254Z,24.22
2023-04-27T02:18:21.348Z,22.75
2023-04-27T02:19:43.811Z,23.04
2023-04-27T02:21:05.880Z,22.79
2023-04-27T02:22:30.199Z,24.44
2023-04-27T02:23:54.750Z,24.57
2023-04-27T02:25:24.022Z,24.47
2023-04-27T02:26:48.856Z,23.08
2023-04-27T02:28:10.466Z,23.28
2023-04-27T02:29:40.278Z,21.86
2023-04-27T02:31:03.234Z,22.27
2023-04-27T02:32:32.682Z,22.96
2023-04-27T02:34:14.800Z,22.18
2023-04-27T02:35:39.300Z,21.85
2023-04-27T02:37:23.006Z,21.42
2023-04-27T02:38:52.333Z,20.29
2023-04-27T02:40:32.867Z,21.56
2023-04-27T02:41:54.997Z,22.50
2023-04-27T02:43:18.628Z,23.16
2023-04-27T02:44:40.806Z,22.76
2023-04-27T02:46:04.446Z,20.95
2023-04-27T02:47:25.997Z,21.72
2023-04-27T02:48:51.038Z,21.37
2023-04-27T02:50:14.778Z,21.47
2023-04-27T02:51:37.017Z,23.37
2023-04-27T02:53:01.057Z,22.73
2023-04-27T02:54:34.763Z,21.52
2023-04-27T02:56:08.309Z,22.79
2023-04-27T02:57:30.215Z,21.02
2023-04-27T02:58:51.863Z,22.71
2023-04-27T03:00:13.536Z,22.52
2023-04-27T03:01:38.336Z,23.75
2023-04-27T03:03:00.490Z,22.49
2023-04-27T03:04:22.683Z,23.25
2023-04-27T03:05:44.969Z,21.99
2023-04-27T03:07:06.520Z,24.02
2023-04-27T03:08:28.346Z,21.88
2023-04-27T03:09:53.187Z,22.52
2023-04-27T03:11:14.771Z,23.40
2023-04-27T03:12:46.663Z,23.58
2023-04-27T03:14:08.018Z,22.37
2023-04-27T03:15:29.776Z,23.16
2023-04-27T03:16:54.347Z,22.51
2023-04-27T03:18:15.935Z,22.13
2023-04-27T03:19:40.816Z,22.68
2023-04-27T03:21:04.653Z,21.98
2023-04-27T03:22:28.480Z,21.62
2023-04-27T03:23:58.267Z,21.73
2023-04-27T03:25:31.641Z,22.88
2023-04-27T03:26:58.356Z,21.99
2023-04-27T03:28:31.954Z,22.23
2023-04-27T03:29:56.092Z,22.25
2023-04-27T03:31:26.864Z,21.75
2023-04-27T03:32:48.972Z,19.65
2023-04-27T03:34:24.422Z,21.07
2023-04-27T03:35:48.847Z,20.55
2023-04-27T03:37:22.298Z,20.90
2023-04-27T03:38:56.280Z,22.90
2023-04-27T03:40:17.888Z,22.38
2023-04-27T03:41:42.318Z,23.15
2023-04-27T03:43:09.486Z,21.90
2023-04-27T03:44:33.429Z,21.49
2023-04-27T03:45:55.380Z,21.48
2023-04-27T03:47:28.525Z,23.80
2023-04-27T03:48:50.837Z,21.70
2023-04-27T03:50:12.476Z,22.59
2023-04-27T03:51:38.123Z,23.62
2023-04-27T03:53:02.310Z,20.56
2023-04-27T03:54:23.888Z,21.16
2023-04-27T03:55:48.188Z,21.71
2023-04-27T03:57:12.312Z,21.06
2023-04-27T03:58:34.058Z,22.07
2023-04-27T04:00:12.060Z,25.35
2023-04-27T04:01:48.391Z,21.89
2023-04-27T04:03:12.593Z,23.64
2023-04-27T04:04:37.492Z,25.59
2023-04-27T04:06:11.163Z,29.90
2023-04-27T04:07:46.129Z,23.94
2023-04-27T04:09:20.141Z,20.15
2023-04-27T04:10:57.954Z,42.70
2023-04-27T04:12:33.864Z,29.27
2023-04-27T04:13:58.191Z,26.74
2023-04-27T04:15:20.344Z,28.76
2023-04-27T04:16:43.211Z,25.47
2023-04-27T04:18:07.879Z,26.26
2023-04-27T04:19:29.377Z,29.70
2023-04-27T04:20:52.426Z,24.44
2023-04-27T04:22:25.923Z,21.83
2023-04-27T04:23:56.466Z,20.96
2023-04-27T04:25:18.827Z,22.07
2023-04-27T04:26:54.922Z,22.51
2023-04-27T04:28:16.268Z,19.97
2023-04-27T04:29:40.428Z,19.51
2023-04-27T04:31:02.897Z,20.26
2023-04-27T04:32:24.477Z,19.88
2023-04-27T04:33:46.739Z,19.59
2023-04-27T04:35:21.322Z,19.59
2023-04-27T04:36:47.916Z,19.05
2023-04-27T04:38:14.376Z,20.20
2023-04-27T04:39:38.225Z,19.84
2023-04-27T04:41:10.082Z,19.22
2023-04-27T04:42:33.304Z,18.79
2023-04-27T04:44:14.153Z,17.99
2023-04-27T04:45:36.595Z,18.79
2023-04-27T04:47:10.186Z,17.92
2023-04-27T04:48:34.376Z,18.12
2023-04-27T04:50:10.875Z,17.98
2023-04-27T04:51:36.853Z,18.03
2023-04-27T04:53:10.133Z,18.45
2023-04-27T04:54:45.610Z,17.75
2023-04-27T04:56:07.195Z,17.58
2023-04-27T04:57:28.555Z,17.75
2023-04-27T04:58:50.639Z,17.35
2023-04-27T05:00:13.425Z,17.69
2023-04-27T05:01:45.457Z,17.66
2023-04-27T05:03:09.095Z,17.54
2023-04-27T05:05:03.497Z,17.54
2023-04-27T05:06:27.297Z,16.73
2023-04-27T05:07:52.084Z,17.42
2023-04-27T05:09:14.074Z,17.39
2023-04-27T05:10:36.808Z,18.07
2023-04-27T05:12:10.450Z,17.61
2023-04-27T05:13:44.029Z,17.44
2023-04-27T05:15:20.083Z,17.52
2023-04-27T05:16:44.642Z,17.13
2023-04-27T05:18:09.032Z,18.83
2023-04-27T05:19:38.386Z,17.52
2023-04-27T05:21:02.617Z,18.77
2023-04-27T05:22:36.666Z,17.66
2023-04-27T05:23:58.312Z,18.34
2023-04-27T05:25:43.393Z,18.10
2023-04-27T05:27:07.142Z,18.38
2023-04-27T05:28:28.833Z,17.92
2023-04-27T05:29:53.777Z,17.48
2023-04-27T05:31:15.427Z,17.84
2023-04-27T05:32:39.742Z,18.31
2023-04-27T05:34:13.276Z,17.30
2023-04-27T05:35:35.218Z,18.21
2023-04-27T05:37:08.718Z,17.23
2023-04-27T05:38:33.508Z,17.64
2023-04-27T05:40:09.178Z,17.50
2023-04-27T05:41:30.611Z,17.67
2023-04-27T05:43:03.674Z,17.69
2023-04-27T05:44:32.750Z,16.98
2023-04-27T05:45:57.159Z,17.20
2023-04-27T05:47:25.898Z,16.73
2023-04-27T05:48:51.188Z,16.37
2023-04-27T05:50:26.409Z,16.85
2023-04-27T05:52:07.765Z,15.96
2023-04-27T05:53:31.545Z,15.99
2023-04-27T05:54:54.046Z,15.65
2023-04-27T05:56:30.393Z,15.80
2023-04-27T05:58:07.900Z,15.21
2023-04-27T05:59:32.840Z,14.40
2023-04-27T06:01:06.193Z,14.61
2023-04-27T06:02:35.490Z,15.16
2023-04-27T06:04:01.634Z,14.70
2023-04-27T06:05:42.789Z,14.58
2023-04-27T06:07:12.081Z,15.22
2023-04-27T06:08:45.537Z,14.75
2023-04-27T06:10:17.285Z,15.98
2023-04-27T06:11:51.117Z,16.29
2023-04-27T06:13:16.694Z,15.89
2023-04-27T06:14:52.583Z,16.22
2023-04-27T06:16:18.720Z,17.33
2023-04-27T06:17:54.896Z,16.99
2023-04-27T06:19:18.847Z,15.76
2023-04-27T06:20:53.641Z,16.30
2023-04-27T06:22:17.354Z,17.28
2023-04-27T06:23:57.467Z,15.10
2023-04-27T06:25:38.786Z,16.98
2023-04-27T06:27:19.324Z,17.48
2023-04-27T06:28:43.656Z,16.74
2023-04-27T06:30:07.301Z,15.67
2023-04-27T06:31:40.693Z,14.45
2023-04-27T06:33:14.095Z,13.61
2023-04-27T06:34:37.812Z,12.71
2023-04-27T06:36:04.537Z,12.57
2023-04-27T06:37:26.136Z,12.26
2023-04-27T06:39:00.082Z,12.53
2023-04-27T06:40:45.094Z,13.20
2023-04-27T06:42:17.326Z,12.79
2023-04-27T06:43:41.377Z,10.09
2023-04-27T06:45:04.733Z,10.62
2023-04-27T06:46:50.214Z,12.19
2023-04-27T06:48:11.919Z,11.47
2023-04-27T06:49:56.985Z,11.68
2023-04-27T06:51:28.310Z,12.33
2023-04-27T06:53:01.824Z,11.96
2023-04-27T06:54:23.596Z,10.65
2023-04-27T06:55:48.244Z,11.47
2023-04-27T06:57:12.784Z,11.17
2023-04-27T06:58:37.662Z,10.10
2023-04-27T07:00:13.241Z,10.41
2023-04-27T07:01:42.570Z,10.22
2023-04-27T07:03:11.553Z,10.79
2023-04-27T07:04:32.648Z,12.04
2023-04-27T07:05:59.616Z,11.09
2023-04-27T07:07:21.471Z,9.06
2023-04-27T07:08:45.817Z,9.42
2023-04-27T07:10:09.443Z,9.07
2023-04-27T07:11:33.453Z,8.55
2023-04-27T07:13:09.148Z,9.24
2023-04-27T07:14:43.149Z,8.84
2023-04-27T07:16:23.898Z,8.42
2023-04-27T07:17:48.550Z,8.88
2023-04-27T07:19:20.100Z,9.17
2023-04-27T07:20:44.757Z,9.07
2023-04-27T07:22:19.974Z,8.52
2023-04-27T07:24:11.696Z,9.75
2023-04-27T07:25:46.224Z,9.80
2023-04-27T07:27:26.768Z,10.02
2023-04-27T07:29:01.654Z,9.84
2023-04-27T07:30:49.313Z,9.59
2023-04-27T07:32:15.146Z,9.78
2023-04-27T07:33:48.691Z,10.11
2023-04-27T07:35:18.030Z,9.54
2023-04-27T07:36:40.376Z,9.91
2023-04-27T07:38:04.437Z,10.49
2023-04-27T07:39:49.370Z,10.52
2023-04-27T07:41:11.107Z,10.96
2023-04-27T07:42:37.511Z,9.74
2023-04-27T07:44:13.666Z,10.12
2023-04-27T07:45:51.061Z,9.06
2023-04-27T07:47:26.017Z,9.49
2023-04-27T07:49:11.930Z,7.98
2023-04-27T07:50:51.189Z,7.84
2023-04-27T07:52:12.967Z,7.49
2023-04-27T07:53:47.831Z,7.93
2023-04-27T07:55:21.864Z,7.77
2023-04-27T07:56:55.860Z,7.90
2023-04-27T07:58:17.331Z,8.14
2023-04-27T07:59:58.416Z,8.07
2023-04-27T08:01:21.944Z,7.82
2023-04-27T08:02:59.334Z,8.62
2023-04-27T08:04:30.867Z,7.87
2023-04-27T08:06:07.524Z,7.96
2023-04-27T08:07:36.039Z,6.95
2023-04-27T08:09:10.099Z,7.16
2023-04-27T08:10:33.993Z,6.54
2023-04-27T08:12:19.841Z,6.93
2023-04-27T08:25:58.345Z,8.06
2023-04-27T08:27:38.922Z,7.64
2023-04-27T08:29:28.401Z,7.80
2023-04-27T08:31:00.711Z,7.38
2023-04-27T08:32:34.648Z,6.43
2023-04-27T08:34:03.580Z,6.10
2023-04-27T08:35:28.144Z,5.96
2023-04-27T08:37:13.167Z,5.35
2023-04-27T08:38:50.141Z,5.45
2023-04-27T08:40:31.064Z,5.06
2023-04-27T08:41:52.925Z,6.35
2023-04-27T08:43:14.986Z,6.20
2023-04-27T08:44:48.503Z,6.22
2023-04-27T08:46:34.396Z,5.52
2023-04-27T08:48:10.485Z,5.35
2023-04-27T08:49:44.684Z,4.89
2023-04-27T08:51:29.989Z,5.01
2023-04-27T08:53:19.675Z,5.69
2023-04-27T08:54:52.086Z,6.03
2023-04-27T08:56:25.678Z,5.58
2023-04-27T08:58:10.620Z,5.56
2023-04-27T08:59:47.737Z,5.48
2023-04-27T09:01:35.401Z,5.80
2023-04-27T09:03:19.412Z,5.59
2023-04-27T09:05:05.734Z,6.17
2023-04-27T09:06:51.580Z,5.82
2023-04-27T09:08:37.714Z,5.24
2023-04-27T09:10:23.140Z,6.42
2023-04-27T09:11:58.859Z,5.86
2023-04-27T09:13:51.006Z,5.91
2023-04-27T09:15:25.001Z,5.58
2023-04-27T09:16:59.782Z,5.42
2023-04-27T09:18:35.794Z,4.94
2023-04-27T09:20:07.745Z,4.75
2023-04-27T09:21:30.971Z,6.40
2023-04-27T09:22:55.637Z,5.10
2023-04-27T09:24:41.174Z,8.97
2023-04-27T09:26:14.363Z,6.01
2023-04-27T09:27:47.802Z,4.15
2023-04-27T09:29:09.452Z,4.63
2023-04-27T09:30:44.496Z,5.43
2023-04-27T09:32:19.074Z,4.91
2023-04-27T09:33:40.824Z,4.98
2023-04-27T09:35:02.251Z,5.18
2023-04-27T09:36:26.896Z,5.06
2023-04-27T09:37:51.617Z,4.89
2023-04-27T09:39:13.621Z,5.22
2023-04-27T09:40:36.921Z,5.24
2023-04-27T09:42:12.060Z,5.42
2023-04-27T09:43:48.833Z,8.32
2023-04-27T09:45:10.802Z,5.27
2023-04-27T09:46:45.095Z,4.46
2023-04-27T09:48:14.450Z,5.20
2023-04-27T09:49:38.904Z,5.00
2023-04-27T09:51:03.043Z,4.78
2023-04-27T09:52:26.450Z,4.35
2023-04-27T09:53:48.192Z,3.87
2023-04-27T09:55:10.400Z,4.11
2023-04-27T09:56:35.042Z,5.20
2023-04-27T09:57:56.570Z,5.04
2023-04-27T09:59:18.579Z,5.21
2023-04-27T10:00:42.560Z,4.57
2023-04-27T10:02:23.491Z,4.48
2023-04-27T10:04:18.575Z,4.41
2023-04-27T10:05:40.708Z,4.64
2023-04-27T10:07:16.413Z,4.71
2023-04-27T10:08:52.386Z,4.61
2023-04-27T10:10:28.401Z,5.04
2023-04-27T10:12:11.628Z,5.64
2023-04-27T10:13:53.138Z,5.44
2023-04-27T10:15:40.057Z,5.16
2023-04-27T10:17:04.028Z,5.73
2023-04-27T10:18:49.849Z,5.56
2023-04-27T10:20:11.741Z,5.21
2023-04-27T10:21:53.447Z,4.38
2023-04-27T10:23:29.100Z,4.42
2023-04-27T10:24:57.674Z,4.42
2023-04-27T10:26:19.641Z,4.15
2023-04-27T10:27:53.281Z,3.90
2023-04-27T10:29:16.496Z,4.14
2023-04-27T10:30:50.148Z,5.60
2023-04-27T10:32:23.705Z,4.07
2023-04-27T10:33:57.413Z,3.73
2023-04-27T10:35:22.216Z,4.17
2023-04-27T10:36:46.186Z,3.98
2023-04-27T10:38:31.424Z,3.66
2023-04-27T10:39:55.071Z,3.44
2023-04-27T10:41:19.810Z,3.95
2023-04-27T10:42:44.100Z,3.29
2023-04-27T10:44:20.076Z,3.79
2023-04-27T10:45:42.514Z,3.33
2023-04-27T10:47:11.440Z,3.40
2023-04-27T10:48:33.421Z,3.23
2023-04-27T10:49:57.157Z,3.01
2023-04-27T10:51:27.200Z,2.97
2023-04-27T10:53:04.033Z,3.09
2023-04-27T10:54:40.044Z,3.25
2023-04-27T10:56:15.507Z,3.10
2023-04-27T10:57:39.600Z,3.03
2023-04-27T10:59:00.864Z,2.59
2023-04-27T11:00:37.256Z,3.17
2023-04-27T11:02:17.626Z,2.94
2023-04-27T11:03:55.435Z,4.53
2023-04-27T11:05:19.592Z,4.60
2023-04-27T11:06:53.608Z,3.92
2023-04-27T11:08:17.875Z,4.14
2023-04-27T11:09:39.890Z,4.14
2023-04-27T11:11:15.429Z,3.97
2023-04-27T11:12:52.216Z,3.98
2023-04-27T11:14:14.703Z,3.94
2023-04-27T11:15:57.040Z,3.63
2023-04-27T11:17:23.446Z,3.77
2023-04-27T11:18:45.166Z,3.59
2023-04-27T11:20:16.648Z,3.94
2023-04-27T11:21:57.002Z,3.92
2023-04-27T11:23:38.042Z,3.55
2023-04-27T11:24:59.489Z,3.81
2023-04-27T11:26:21.772Z,3.38
2023-04-27T11:27:43.242Z,3.20
2023-04-27T11:29:14.097Z,3.26
2023-04-27T11:30:55.632Z,3.51
2023-04-27T11:32:19.961Z,3.36
2023-04-27T11:34:10.781Z,3.58
2023-04-27T11:35:46.182Z,4.43
2023-04-27T11:37:18.476Z,3.72
2023-04-27T11:38:52.517Z,3.48
2023-04-27T11:40:29.385Z,3.09
2023-04-27T11:41:51.410Z,3.05
2023-04-27T11:43:13.061Z,3.45
2023-04-27T11:44:46.741Z,3.58
2023-04-27T11:46:10.933Z,3.98
2023-04-27T11:47:47.070Z,3.90
2023-04-27T11:49:20.839Z,3.50
2023-04-27T11:51:06.189Z,3.18
2023-04-27T11:52:40.026Z,3.40
2023-04-27T11:54:03.936Z,3.17
2023-04-27T11:55:44.996Z,3.25
2023-04-27T11:57:30.197Z,2.96
2023-04-27T11:59:15.550Z,3.50
2023-04-27T12:00:51.582Z,2.90
2023-04-27T12:02:17.951Z,2.40
2023-04-27T12:03:54.325Z,2.30
2023-04-27T12:05:35.198Z,2.67
2023-04-27T12:06:58.987Z,2.43
2023-04-27T12:08:30.798Z,2.28
2023-04-27T12:10:06.173Z,2.63
2023-04-27T12:11:40.120Z,3.10
2023-04-27T12:13:20.648Z,2.92
2023-04-27T12:14:45.106Z,3.09
2023-04-27T12:16:18.614Z,2.98
2023-04-27T12:17:41.498Z,3.36
2023-04-27T12:19:05.366Z,3.43
2023-04-27T12:20:29.939Z,3.66
2023-04-27T12:22:06.185Z,4.05
2023-04-27T12:23:50.569Z,4.35
2023-04-27T12:25:20.078Z,4.02
2023-04-27T12:26:44.173Z,3.41
2023-04-27T12:28:19.255Z,3.08
2023-04-27T12:29:41.120Z,3.31
2023-04-27T12:31:14.524Z,3.81
2023-04-27T12:32:59.461Z,3.65
2023-04-27T12:34:23.975Z,4.64
2023-04-27T12:35:47.289Z,4.12
2023-04-27T12:37:11.593Z,3.48
2023-04-27T12:38:48.163Z,3.21
2023-04-27T12:40:23.213Z,3.41
2023-04-27T12:42:01.086Z,3.36
2023-04-27T12:43:32.750Z,3.47
2023-04-27T12:44:56.656Z,4.02
2023-04-27T12:46:20.923Z,4.26
2023-04-27T12:48:00.877Z,4.28
2023-04-27T12:49:36.137Z,4.18
2023-04-27T12:51:00.126Z,4.30
2023-04-27T12:52:41.058Z,4.29
2023-04-27T12:54:14.881Z,4.53
2023-04-27T12:55:48.946Z,5.93
2023-04-27T12:57:10.449Z,6.01
2023-04-27T12:58:39.857Z,4.95
2023-04-27T13:00:02.069Z,5.95
2023-04-27T13:01:27.792Z,5.67
2023-04-27T13:02:49.361Z,5.61
2023-04-27T13:04:11.402Z,5.06
2023-04-27T13:05:47.965Z,5.35
2023-04-27T13:07:09.885Z,5.52
2023-04-27T13:08:43.580Z,4.95
2023-04-27T13:10:17.159Z,5.51
2023-04-27T13:11:46.576Z,7.11
2023-04-27T13:13:22.135Z,9.41
2023-04-27T13:14:46.624Z,6.51
2023-04-27T13:16:08.361Z,7.51
2023-04-27T13:17:30.692Z,7.85
2023-04-27T13:19:13.559Z,7.99
2023-04-27T13:20:51.057Z,6.73
2023-04-27T13:22:24.682Z,6.14
2023-04-27T13:24:07.551Z,5.68
2023-04-27T13:25:43.572Z,8.12
2023-04-27T13:27:17.006Z,6.23
2023-04-27T13:29:02.222Z,6.17
2023-04-27T13:30:26.510Z,6.67
2023-04-27T13:31:50.204Z,8.00
2023-04-27T13:33:24.221Z,7.41
2023-04-27T13:34:59.538Z,6.53
2023-04-27T13:36:24.030Z,4.86
2023-04-27T13:37:45.736Z,4.72
2023-04-27T13:39:07.697Z,4.67
2023-04-27T13:40:31.848Z,6.04
2023-04-27T13:41:53.636Z,7.64
2023-04-27T13:43:15.586Z,9.62
2023-04-27T13:44:37.524Z,8.89
2023-04-27T13:46:01.517Z,6.40
2023-04-27T13:47:38.047Z,8.40
2023-04-27T13:49:18.490Z,8.59
2023-04-27T13:50:40.899Z,6.16
2023-04-27T13:52:05.373Z,5.33
2023-04-27T13:53:38.857Z,6.98
2023-04-27T13:55:05.521Z,6.41
2023-04-27T13:56:30.297Z,4.74
2023-04-27T13:57:51.794Z,2.96
2023-04-27T13:59:16.107Z,5.37
2023-04-27T14:00:38.677Z,4.59
2023-04-27T14:02:00.309Z,3.68
2023-04-27T14:03:24.579Z,3.98
2023-04-27T14:04:57.965Z,3.29
2023-04-27T14:06:19.839Z,2.50
2023-04-27T14:07:44.204Z,3.25
2023-04-27T14:09:05.737Z,3.40
2023-04-27T14:10:27.984Z,3.48
2023-04-27T14:11:56.469Z,3.84
2023-04-27T14:13:19.428Z,3.79
2023-04-27T14:14:41.649Z,4.96
2023-04-27T14:16:15.097Z,4.65
2023-04-27T14:17:44.301Z,5.62
2023-04-27T14:19:06.190Z,5.43
2023-04-27T14:20:42.514Z,3.96
2023-04-27T14:22:17.504Z,3.38
2023-04-27T14:23:48.921Z,3.91
2023-04-27T14:25:34.240Z,3.87
2023-04-27T14:27:04.966Z,5.60
2023-04-27T14:28:29.611Z,6.50
2023-04-27T14:29:58.549Z,6.35
2023-04-27T14:31:20.570Z,7.00
2023-04-27T14:32:44.965Z,5.58
2023-04-27T14:34:14.489Z,4.79
2023-04-27T14:35:37.060Z,3.66
2023-04-27T14:37:22.369Z,3.58
2023-04-27T14:38:46.305Z,3.79
2023-04-27T14:40:22.083Z,3.71
2023-04-27T14:41:53.710Z,4.09
2023-04-27T14:43:17.745Z,3.54
2023-04-27T14:45:03.014Z,4.02
2023-04-27T14:46:28.336Z,4.18
2023-04-27T14:47:50.148Z,4.40
2023-04-27T14:49:30.825Z,4.29
2023-04-27T14:51:06.215Z,5.00
2023-04-27T14:52:30.438Z,5.69
2023-04-27T14:54:03.743Z,5.50
2023-04-27T14:55:37.142Z,4.71
2023-04-27T14:57:00.523Z,5.10
2023-04-27T14:58:27.114Z,4.99
2023-04-27T15:00:03.039Z,4.37
2023-04-27T15:01:27.675Z,4.24
2023-04-27T15:03:00.903Z,4.41
2023-04-27T15:04:35.504Z,6.10
2023-04-27T15:05:57.105Z,4.82
2023-04-27T15:07:21.310Z,4.41
2023-04-27T15:08:47.736Z,4.98
2023-04-27T15:10:09.320Z,6.07
2023-04-27T15:11:50.504Z,4.78
2023-04-27T15:13:21.900Z,4.54
2023-04-27T15:14:55.130Z,6.77
2023-04-27T15:16:22.429Z,8.20
2023-04-27T15:18:07.586Z,6.99
2023-04-27T15:19:29.992Z,7.37
2023-04-27T15:20:56.183Z,7.21
2023-04-27T15:22:18.232Z,7.01
2023-04-27T15:23:51.857Z,6.45
2023-04-27T15:25:20.956Z,5.87
2023-04-27T15:26:45.596Z,5.89
2023-04-27T15:28:21.071Z,5.84
2023-04-27T15:29:43.028Z,6.05
2023-04-27T15:31:12.450Z,5.94
2023-04-27T15:32:37.220Z,5.49
2023-04-27T15:34:10.535Z,6.00
2023-04-27T15:35:34.750Z,5.84
2023-04-27T15:37:19.547Z,5.98
2023-04-27T15:38:53.207Z,6.19
2023-04-27T15:40:26.981Z,9.40
2023-04-27T15:41:58.263Z,8.74
2023-04-27T15:43:22.293Z,7.26
2023-04-27T15:44:56.232Z,6.67
2023-04-27T15:46:20.137Z,6.41
2023-04-27T15:47:41.980Z,5.56
2023-04-27T15:49:03.939Z,6.31
2023-04-27T15:50:26.049Z,6.26
2023-04-27T15:51:55.362Z,6.48
2023-04-27T15:53:17.446Z,6.75
2023-04-27T15:54:41.889Z,6.60
2023-04-27T15:56:05.777Z,6.78
2023-04-27T15:57:39.464Z,6.52
2023-04-27T15:59:20.148Z,6.83
2023-04-27T16:00:41.964Z,6.85
2023-04-27T16:02:11.512Z,7.10
2023-04-27T16:03:37.600Z,6.36
2023-04-27T16:05:01.487Z,6.73
2023-04-27T16:06:26.043Z,6.94
2023-04-27T16:07:59.138Z,6.68
2023-04-27T16:09:32.734Z,6.05
2023-04-27T16:10:54.329Z,6.84
2023-04-27T16:12:16.463Z,7.91
2023-04-27T16:13:40.813Z,6.73
2023-04-27T16:15:02.553Z,6.42
2023-04-27T16:16:36.419Z,6.93
2023-04-27T16:18:00.768Z,7.39
2023-04-27T16:19:25.897Z,7.26
2023-04-27T16:20:47.612Z,6.82
2023-04-27T16:22:09.368Z,7.41
2023-04-27T16:23:31.551Z,8.76
2023-04-27T16:25:00.049Z,9.10
2023-04-27T16:26:26.610Z,8.78
2023-04-27T16:27:52.526Z,21.30
2023-04-27T16:29:16.987Z,26.62
2023-04-27T16:31:02.052Z,46.02
2023-04-27T16:32:24.778Z,25.28
2023-04-27T16:33:49.265Z,19.39
2023-04-27T16:35:10.975Z,21.68
2023-04-27T16:36:37.862Z,15.78
2023-04-27T16:37:59.667Z,17.83
2023-04-27T16:39:21.407Z,12.85
2023-04-27T16:40:45.956Z,11.78
2023-04-27T16:42:10.178Z,12.51
2023-04-27T16:43:55.256Z,9.53
2023-04-27T16:45:19.165Z,13.46
2023-04-27T16:46:51.261Z,8.70
2023-04-27T16:48:13.054Z,7.47
2023-04-27T16:49:37.754Z,11.48
2023-04-27T16:51:00.058Z,13.17
2023-04-27T16:52:30.371Z,12.79
2023-04-27T16:54:03.689Z,14.83
2023-04-27T16:55:37.448Z,15.60
2023-04-27T16:57:22.169Z,23.71
2023-04-27T16:59:08.547Z,18.55
2023-04-27T17:00:30.986Z,13.17
2023-04-27T17:01:52.391Z,7.99
2023-04-27T17:03:16.663Z,11.45
2023-04-27T17:04:42.068Z,13.81
2023-04-27T17:06:05.686Z,10.76
2023-04-27T17:07:40.231Z,13.07
2023-04-27T17:09:11.307Z,11.28
2023-04-27T17:10:36.491Z,8.62
2023-04-27T17:12:00.492Z,19.67
2023-04-27T17:13:32.244Z,9.71
2023-04-27T17:15:07.482Z,11.89
2023-04-27T17:16:29.799Z,10.38
2023-04-27T17:18:10.506Z,16.19
2023-04-27T17:19:35.136Z,11.23
2023-04-27T17:20:59.089Z,13.24
2023-04-27T17:22:21.266Z,15.19
2023-04-27T17:23:54.990Z,13.50
2023-04-27T17:25:21.331Z,26.43
2023-04-27T17:26:45.963Z,21.87
2023-04-27T17:28:14.947Z,22.42
2023-04-27T17:29:39.484Z,20.16
2023-04-27T17:31:01.756Z,12.04
2023-04-27T17:32:23.572Z,10.81
2023-04-27T17:33:45.139Z,11.95
2023-04-27T17:35:10.434Z,13.13
2023-04-27T17:36:42.001Z,11.67
2023-04-27T17:38:16.502Z,9.26
2023-04-27T17:40:00.371Z,13.90
2023-04-27T17:41:35.502Z,17.94
2023-04-27T17:43:00.903Z,14.67
2023-04-27T17:44:36.517Z,23.41
2023-04-27T17:46:09.751Z,13.75
2023-04-27T17:47:57.231Z,19.07
2023-04-27T17:49:18.947Z,17.20
2023-04-27T17:50:54.729Z,17.05
2023-04-27T17:52:37.668Z,13.11
2023-04-27T17:54:18.029Z,22.05
2023-04-27T17:55:42.813Z,29.81
2023-04-27T17:57:13.846Z,36.86
2023-04-27T17:58:45.935Z,28.54
2023-04-27T18:00:15.002Z,39.72
2023-04-27T18:01:51.550Z,20.09
2023-04-27T18:03:13.456Z,24.59
2023-04-27T18:04:36.580Z,37.05
2023-04-27T18:05:58.061Z,21.32
2023-04-27T18:07:20.490Z,14.67
2023-04-27T18:08:42.098Z,17.90
2023-04-27T18:10:04.070Z,17.72
2023-04-27T18:11:25.897Z,15.00
2023-04-27T18:12:47.616Z,16.45
2023-04-27T18:14:23.401Z,16.88
2023-04-27T18:16:15.702Z,21.47
2023-04-27T18:17:40.424Z,23.09
2023-04-27T18:19:02.197Z,16.87
2023-04-27T18:20:25.658Z,22.98
2023-04-27T18:21:47.693Z,26.48
2023-04-27T18:23:09.964Z,29.25
2023-04-27T18:24:32.076Z,23.17
2023-04-27T18:26:01.306Z,17.10
2023-04-27T18:27:32.787Z,28.25
2023-04-27T18:29:05.769Z,30.67
2023-04-27T18:30:30.102Z,26.88
2023-04-27T18:31:53.910Z,29.50
2023-04-27T18:33:20.080Z,28.58
2023-04-27T18:34:42.228Z,27.05
2023-04-27T18:36:03.772Z,24.55
2023-04-27T18:37:37.869Z,25.50
2023-04-27T18:38:59.819Z,22.88
2023-04-27T18:40:21.804Z,24.74
2023-04-27T18:41:57.720Z,24.52
2023-04-27T18:43:21.844Z,23.64
2023-04-27T18:44:43.759Z,23.45
2023-04-27T18:46:05.510Z,23.14
2023-04-27T18:47:27.642Z,27.57
2023-04-27T18:48:51.514Z,26.23
2023-04-27T18:50:15.723Z,26.59
2023-04-27T18:51:40.793Z,28.92
2023-04-27T18:53:02.744Z,35.01
2023-04-27T18:54:27.247Z,34.24
2023-04-27T18:55:51.692Z,37.52
2023-04-27T18:57:13.350Z,44.46
2023-04-27T18:58:35.708Z,44.68
2023-04-27T18:59:57.346Z,37.27
2023-04-27T19:01:19.156Z,46.73
2023-04-27T19:02:41.498Z,42.55
2023-04-27T19:04:10.888Z,20.68
2023-04-27T19:05:40.798Z,29.22
2023-04-27T19:07:08.047Z,24.03
2023-04-27T19:08:41.861Z,18.48
2023-04-27T19:10:05.712Z,27.19
2023-04-27T19:11:28.869Z,26.01
2023-04-27T19:12:50.376Z,29.02
2023-04-27T19:14:12.195Z,27.00
2023-04-27T19:15:38.973Z,24.36
2023-04-27T19:17:21.093Z,23.75
2023-04-27T19:18:50.463Z,25.83
2023-04-27T19:20:22.419Z,26.38
2023-04-27T19:21:55.850Z,29.64
2023-04-27T19:23:25.059Z,34.41
2023-04-27T19:24:46.709Z,34.49
2023-04-27T19:26:13.333Z,30.43
2023-04-27T19:27:36.560Z,28.80
2023-04-27T19:29:05.597Z,23.37
2023-04-27T19:30:27.559Z,26.72
2023-04-27T19:31:49.063Z,24.88
2023-04-27T19:33:12.622Z,25.27
2023-04-27T19:34:34.909Z,25.59
2023-04-27T19:35:58.787Z,24.40
2023-04-27T19:37:20.691Z,25.99